Time;durP1;ratioP1;P1;durP2;ratioP2;P2;SDS_P1;SDS_P2;PMS_P1;PMS_P2;Temp;Humidity;BMP_temperature;BMP_pressure;BME280_temperature;BME280_humidity;BME280_pressure;Samples;Min_cycle;Max_cycle;Signal;HPM_P1;HPM_P2
2021/12/13 00:00:43;;;;;;;10.63;6.65;;;3.60;96.70;;;;;;4965220;28;20048;-72
2021/12/13 00:03:21;;;;;;;11.93;6.45;;;3.60;96.70;;;;;;4957860;28;20042;-72
2021/12/13 00:05:53;;;;;;;8.80;5.85;;;3.70;96.70;;;;;;4957732;28;20135;-72
2021/12/13 00:08:27;;;;;;;10.05;6.07;;;3.80;96.70;;;;;;4962635;28;20053;-72
2021/12/13 00:10:59;;;;;;;8.18;5.43;;;3.70;96.70;;;;;;4952109;28;20134;-71
2021/12/13 00:13:34;;;;;;;8.68;5.25;;;3.70;96.70;;;;;;4958199;28;20226;-72
2021/12/13 00:16:05;;;;;;;10.75;6.05;;;3.60;96.70;;;;;;4962685;28;20697;-71
2021/12/13 00:18:40;;;;;;;11.55;6.75;;;3.50;96.70;;;;;;4960273;28;20043;-72
2021/12/13 00:21:12;;;;;;;10.18;6.30;;;3.40;96.70;;;;;;4959083;28;20464;-72
2021/12/13 00:23:49;;;;;;;11.55;6.75;;;3.40;96.70;;;;;;4955847;28;20062;-72
2021/12/13 00:26:24;;;;;;;13.15;7.03;;;3.30;96.70;;;;;;4962108;28;20043;-72
2021/12/13 00:28:52;;;;;;;12.68;7.03;;;3.20;96.70;;;;;;4965512;28;20061;-72
2021/12/13 00:31:34;;;;;;;11.00;6.45;;;3.20;96.70;;;;;;4957144;28;20564;-71
2021/12/13 00:34:20;;;;;;;10.43;5.80;;;3.20;96.70;;;;;;4956184;28;20125;-72
2021/12/13 00:36:53;;;;;;;10.30;6.35;;;3.10;96.70;;;;;;4960826;28;20104;-71
2021/12/13 00:39:23;;;;;;;8.73;5.53;;;3.20;96.70;;;;;;4961266;28;20045;-72
2021/12/13 00:41:53;;;;;;;8.95;5.80;;;3.30;96.70;;;;;;4962602;28;20039;-71
2021/12/13 00:44:24;;;;;;;8.68;5.85;;;3.30;96.70;;;;;;4966134;28;20050;-71
2021/12/13 00:46:55;;;;;;;7.40;4.68;;;3.20;96.70;;;;;;4956384;28;20059;-71
2021/12/13 00:49:29;;;;;;;7.28;4.57;;;3.20;96.70;;;;;;4964394;28;20050;-72
2021/12/13 00:51:59;;;;;;;7.63;4.43;;;3.30;96.70;;;;;;4955318;28;20051;-72
2021/12/13 00:54:36;;;;;;;7.25;4.78;;;3.10;96.70;;;;;;4960417;28;20695;-71
2021/12/13 00:57:34;;;;;;;8.50;4.72;;;3.10;96.70;;;;;;4956763;28;20125;-72
2021/12/13 01:00:08;;;;;;;6.80;4.43;;;3.00;96.70;;;;;;4964428;28;20100;-72
2021/12/13 01:02:41;;;;;;;6.28;3.88;;;2.90;96.70;;;;;;4960479;28;20327;-71
2021/12/13 01:05:14;;;;;;;7.60;3.75;;;3.10;96.70;;;;;;4953415;28;20140;-72
2021/12/13 01:08:18;;;;;;;5.47;3.20;;;3.10;96.70;;;;;;4973522;28;20048;-72
2021/12/13 01:11:19;;;;;;;5.57;3.30;;;3.30;96.70;;;;;;4957456;28;20061;-72
2021/12/13 01:14:20;;;;;;;5.85;3.28;;;3.30;96.70;;;;;;4957137;28;20043;-71
2021/12/13 01:17:12;;;;;;;6.85;3.97;;;3.40;96.70;;;;;;4949788;28;20164;-72
2021/12/13 01:19:56;;;;;;;6.80;3.75;;;3.30;96.70;;;;;;4941798;28;20106;-72
2021/12/13 01:22:42;;;;;;;9.13;5.47;;;3.30;96.70;;;;;;4937575;28;20138;-72
2021/12/13 01:28:04;;;;;;;7.10;4.72;;;3.30;96.70;;;;;;4959528;28;20062;-72
2021/12/13 01:30:42;;;;;;;7.10;5.15;;;3.30;96.70;;;;;;4955266;28;20051;-72
2021/12/13 01:33:13;;;;;;;10.07;6.07;;;3.20;96.70;;;;;;4957977;28;20043;-71
2021/12/13 01:35:45;;;;;;;7.80;5.60;;;3.20;96.70;;;;;;4954468;28;20451;-72
2021/12/13 01:38:17;;;;;;;8.35;5.75;;;3.30;96.70;;;;;;4960970;28;20110;-72
2021/12/13 01:40:48;;;;;;;9.55;5.80;;;3.10;96.70;;;;;;4957817;28;20425;-72
2021/12/13 01:43:21;;;;;;;9.43;5.57;;;3.20;96.70;;;;;;4964312;28;20314;-72
2021/12/13 01:45:50;;;;;;;7.80;5.60;;;3.10;96.70;;;;;;4954649;28;20051;-71
2021/12/13 01:48:22;;;;;;;9.35;5.50;;;3.00;96.70;;;;;;4953156;28;20121;-71
2021/12/13 01:51:03;;;;;;;7.35;5.13;;;2.90;96.70;;;;;;4956664;28;20500;-71
2021/12/13 01:53:40;;;;;;;7.57;5.35;;;2.90;96.70;;;;;;4941929;28;20054;-73
2021/12/13 01:56:23;;;;;;;;;;;3.00;96.70;;;;;;4963108;28;20047;-72
2021/12/13 01:58:52;;;;;;;10.20;5.47;;;3.10;96.70;;;;;;4959154;28;19926;-71
2021/12/13 02:01:24;;;;;;;9.32;5.63;;;3.20;96.70;;;;;;4956639;28;20223;-72
2021/12/13 02:03:56;;;;;;;7.85;5.28;;;3.30;96.70;;;;;;4950916;28;20074;-72
2021/12/13 02:06:32;;;;;;;7.18;4.55;;;3.20;96.70;;;;;;4965605;28;20050;-72
2021/12/13 02:09:07;;;;;;;5.75;4.20;;;3.10;96.70;;;;;;4950568;28;20394;-72
2021/12/13 02:11:35;;;;;;;7.60;3.92;;;3.10;96.70;;;;;;4957151;28;20055;-71
2021/12/13 02:14:13;;;;;;;5.78;3.30;;;3.10;96.70;;;;;;4957505;28;20074;-72
2021/12/13 02:17:10;;;;;;;4.50;3.38;;;3.10;96.70;;;;;;4956351;28;20558;-72
2021/12/13 02:19:47;;;;;;;6.28;4.00;;;2.90;96.70;;;;;;4954786;28;20371;-71
2021/12/13 02:22:30;;;;;;;6.30;4.05;;;2.90;96.70;;;;;;4957475;28;20500;-72
2021/12/13 02:25:02;;;;;;;7.57;4.57;;;2.80;96.70;;;;;;4942014;28;20431;-72
2021/12/13 02:27:33;;;;;;;7.70;4.75;;;2.80;96.70;;;;;;4962485;28;20046;-72
2021/12/13 02:30:10;;;;;;;7.63;4.80;;;2.80;96.70;;;;;;4954192;28;20053;-72
2021/12/13 02:32:41;;;;;;;7.93;5.03;;;2.90;96.70;;;;;;4952624;28;20564;-72
2021/12/13 02:35:11;;;;;;;7.50;4.95;;;2.90;96.70;;;;;;4958857;28;20047;-72
2021/12/13 02:37:42;;;;;;;9.38;5.32;;;2.80;96.70;;;;;;4951239;28;20069;-71
2021/12/13 02:40:12;;;;;;;8.57;5.55;;;2.80;96.70;;;;;;4953052;28;20094;-72
2021/12/13 02:42:41;;;;;;;8.77;5.57;;;2.70;96.70;;;;;;4962293;28;20134;-72
2021/12/13 02:45:18;;;;;;;8.50;5.10;;;2.80;96.70;;;;;;4955118;28;20039;-72
2021/12/13 02:47:53;;;;;;;8.70;5.55;;;2.90;96.70;;;;;;4935420;28;20419;-72
2021/12/13 02:50:28;;;;;;;12.13;5.38;;;2.80;96.70;;;;;;4956053;28;20047;-72
2021/12/13 02:53:01;;;;;;;7.03;4.55;;;2.90;96.70;;;;;;4954834;28;20125;-72
2021/12/13 02:55:37;;;;;;;7.70;4.57;;;3.00;96.70;;;;;;4953583;28;20110;-73
2021/12/13 02:58:10;;;;;;;7.05;4.88;;;2.90;96.70;;;;;;4982980;23;20495;-69
2021/12/13 03:00:49;;;;;;;7.20;5.50;;;2.80;96.70;;;;;;4929051;29;20043;-70
2021/12/13 03:03:23;;;;;;;8.63;5.00;;;2.70;96.70;;;;;;4931714;29;20148;-70
2021/12/13 03:05:54;;;;;;;6.50;4.68;;;2.70;96.70;;;;;;4931417;29;20455;-70
2021/12/13 03:08:40;;;;;;;9.88;4.78;;;2.70;96.70;;;;;;4857312;29;20079;-70
2021/12/13 03:11:27;;;;;;;8.35;4.70;;;2.80;96.70;;;;;;4869643;29;20068;-70
2021/12/13 03:13:58;;;;;;;7.90;4.50;;;2.90;96.70;;;;;;4859347;29;20478;-70
2021/12/13 03:16:31;;;;;;;8.18;4.25;;;2.90;96.70;;;;;;4875889;29;20089;-70
2021/12/13 03:19:06;;;;;;;6.35;3.80;;;2.80;96.70;;;;;;4871506;29;20068;-70
2021/12/13 03:22:17;;;;;;;5.55;4.50;;;2.70;96.70;;;;;;4872578;29;20481;-70
2021/12/13 03:25:07;;;;;;;6.53;3.80;;;2.80;96.70;;;;;;4876893;29;20520;-70
2021/12/13 03:28:09;;;;;;;7.25;3.70;;;2.80;96.70;;;;;;4871534;29;20076;-70
2021/12/13 03:30:46;;;;;;;6.63;3.53;;;2.80;96.70;;;;;;4859062;29;20139;-69
2021/12/13 03:33:18;;;;;;;8.68;4.00;;;2.70;96.70;;;;;;4898098;29;20063;-70
2021/12/13 03:35:53;;;;;;;7.10;3.58;;;2.60;96.70;;;;;;4933358;28;20047;-70
2021/12/13 03:38:27;;;;;;;5.45;4.10;;;2.60;96.70;;;;;;4929615;28;20087;-70
2021/12/13 03:40:59;;;;;;;6.68;4.45;;;2.70;96.70;;;;;;4932876;29;20131;-70
2021/12/13 03:43:31;;;;;;;5.65;4.28;;;2.50;96.70;;;;;;4935894;29;20145;-70
2021/12/13 03:46:03;;;;;;;6.70;3.92;;;2.50;96.70;;;;;;4935229;29;20125;-70
2021/12/13 03:48:32;;;;;;;6.90;4.55;;;2.40;96.70;;;;;;4948357;28;20047;-70
2021/12/13 03:51:04;;;;;;;8.68;4.80;;;2.50;96.70;;;;;;4937287;29;20386;-70
2021/12/13 03:53:34;;;;;;;7.47;4.68;;;2.50;96.70;;;;;;4939430;29;20040;-70
2021/12/13 03:56:07;;;;;;;7.53;4.53;;;2.60;96.70;;;;;;4935312;29;20697;-70
2021/12/13 03:58:39;;;;;;;6.57;4.30;;;2.50;96.70;;;;;;4957023;28;20621;-70
2021/12/13 04:01:10;;;;;;;7.20;4.45;;;2.60;96.70;;;;;;4955226;28;20656;-70
2021/12/13 04:03:39;;;;;;;7.28;4.43;;;2.60;96.70;;;;;;4978075;28;20046;-70
2021/12/13 04:06:07;;;;;;;6.18;4.22;;;2.50;96.70;;;;;;4981072;28;20145;-70
2021/12/13 04:08:36;;;;;;;6.90;4.43;;;2.40;96.70;;;;;;4974662;28;20046;-69
2021/12/13 04:11:08;;;;;;;6.32;4.07;;;2.30;96.70;;;;;;4977128;28;20051;-70
2021/12/13 04:13:40;;;;;;;9.13;5.70;;;2.30;96.70;;;;;;4976429;28;20035;-70
2021/12/13 04:16:16;;;;;;;8.52;5.38;;;2.30;96.70;;;;;;4958485;28;20035;-70
2021/12/13 04:21:26;;;;;;;7.47;4.05;;;2.20;96.70;;;;;;4973383;28;20053;-71
2021/12/13 04:23:58;;;;;;;7.57;4.80;;;2.20;96.70;;;;;;4959476;28;20047;-71
2021/12/13 04:26:29;;;;;;;6.15;4.00;;;2.30;96.70;;;;;;4958126;28;20042;-71
2021/12/13 04:29:00;;;;;;;6.75;4.60;;;2.30;96.70;;;;;;4973228;28;20656;-70
2021/12/13 04:31:32;;;;;;;7.63;4.78;;;2.30;96.70;;;;;;4959600;28;20467;-70
2021/12/13 04:34:04;;;;;;;7.13;4.63;;;2.40;96.70;;;;;;4957501;28;20066;-70
2021/12/13 04:36:35;;;;;;;7.75;4.47;;;2.40;96.70;;;;;;4952747;28;20054;-71
2021/12/13 04:39:13;;;;;;;7.55;4.90;;;2.40;96.70;;;;;;4972882;28;20047;-71
2021/12/13 04:41:47;;;;;;;8.57;4.97;;;2.40;96.70;;;;;;4956878;28;20937;-70
2021/12/13 04:44:21;;;;;;;6.25;4.30;;;2.40;96.70;;;;;;4974233;28;20064;-71
2021/12/13 04:46:53;;;;;;;5.78;4.20;;;2.50;96.70;;;;;;4957763;28;20543;-70
2021/12/13 04:49:25;;;;;;;6.53;4.90;;;2.50;96.70;;;;;;4973349;28;20038;-70
2021/12/13 04:51:58;;;;;;;6.18;4.85;;;2.60;96.70;;;;;;4955993;28;20056;-71
2021/12/13 04:54:29;;;;;;;7.72;5.18;;;2.50;96.70;;;;;;4973325;28;20038;-71
2021/12/13 04:56:59;;;;;;;7.47;5.13;;;2.50;96.70;;;;;;4974030;28;20512;-70
2021/12/13 04:59:29;;;;;;;8.02;4.78;;;2.30;96.70;;;;;;4976007;28;20082;-71
2021/12/13 05:02:00;;;;;;;6.47;4.47;;;2.30;96.70;;;;;;4975273;28;20484;-71
2021/12/13 05:04:29;;;;;;;6.10;5.03;;;2.40;96.70;;;;;;4971937;28;20046;-70
2021/12/13 05:07:00;;;;;;;6.47;4.72;;;2.50;96.70;;;;;;4970362;28;20103;-71
2021/12/13 05:09:29;;;;;;;6.53;4.68;;;2.50;96.70;;;;;;4970865;28;20525;-71
2021/12/13 05:12:09;;;;;;;7.60;4.63;;;2.50;96.70;;;;;;4974929;28;20280;-70
2021/12/13 05:14:41;;;;;;;8.68;5.18;;;2.60;96.70;;;;;;4975584;28;20061;-71
2021/12/13 05:17:14;;;;;;;8.32;4.93;;;2.70;96.70;;;;;;4972824;28;20093;-71
2021/12/13 05:19:46;;;;;;;9.13;5.55;;;2.60;96.70;;;;;;4956611;28;20497;-71
2021/12/13 05:22:16;;;;;;;6.95;4.90;;;2.40;96.70;;;;;;4974310;28;20038;-71
2021/12/13 05:24:53;;;;;;;7.97;4.97;;;2.40;96.70;;;;;;4971172;28;20049;-70
2021/12/13 05:27:26;;;;;;;;;;;2.40;96.70;;;;;;4976871;28;20133;-71
2021/12/13 05:30:09;;;;;;;9.15;5.22;;;2.40;96.70;;;;;;4973242;28;19926;-71
2021/12/13 05:32:41;;;;;;;8.70;5.22;;;2.40;96.70;;;;;;4971641;28;20568;-70
2021/12/13 05:35:19;;;;;;;7.53;5.00;;;2.40;96.70;;;;;;4975864;28;20497;-71
2021/12/13 05:37:50;;;;;;;7.22;4.50;;;2.50;96.70;;;;;;4959128;28;20584;-70
2021/12/13 05:40:21;;;;;;;6.68;4.80;;;2.50;96.70;;;;;;4970321;28;20453;-70
2021/12/13 05:42:54;;;;;;;4.65;3.53;;;2.50;96.70;;;;;;4971897;28;20434;-71
2021/12/13 05:45:31;;;;;;;9.98;4.47;;;2.50;96.70;;;;;;4953483;28;20571;-71
2021/12/13 05:48:04;;;;;;;6.68;3.95;;;2.50;96.70;;;;;;4972272;28;20077;-71
2021/12/13 05:50:36;;;;;;;6.47;4.13;;;2.40;96.70;;;;;;4971617;28;20054;-70
2021/12/13 05:53:09;;;;;;;8.43;4.25;;;2.40;96.70;;;;;;4956408;28;20564;-71
2021/12/13 05:55:46;;;;;;;5.88;3.55;;;2.40;96.70;;;;;;4968948;28;20116;-70
2021/12/13 05:58:29;;;;;;;6.82;4.30;;;2.30;96.70;;;;;;4973090;28;20055;-70
2021/12/13 06:00:59;;;;;;;8.30;4.47;;;2.30;96.70;;;;;;4967717;28;20042;-70
2021/12/13 06:03:32;;;;;;;6.95;4.00;;;2.30;96.70;;;;;;4974985;28;20466;-70
2021/12/13 06:06:07;;;;;;;6.28;3.92;;;2.20;96.70;;;;;;4975661;28;20046;-71
2021/12/13 06:08:45;;;;;;;5.03;3.70;;;2.30;96.70;;;;;;4953723;28;20050;-71
2021/12/13 06:11:17;;;;;;;7.20;4.45;;;2.20;96.70;;;;;;4968161;28;20603;-70
2021/12/13 06:14:03;;;;;;;8.75;4.47;;;2.20;96.70;;;;;;4973944;28;20043;-70
2021/12/13 06:17:03;;;;;;;9.82;4.30;;;2.30;96.70;;;;;;4970468;28;20043;-70
2021/12/13 06:19:35;;;;;;;10.38;4.95;;;2.30;96.70;;;;;;4961202;28;20046;-70
2021/12/13 06:22:09;;;;;;;7.63;4.80;;;2.30;96.70;;;;;;4942552;28;20464;-70
2021/12/13 06:24:41;;;;;;;7.18;4.53;;;2.30;96.70;;;;;;4956501;28;20397;-70
2021/12/13 06:27:14;;;;;;;7.32;4.35;;;2.20;96.70;;;;;;4952645;28;20047;-70
2021/12/13 06:30:05;;;;;;;7.38;4.53;;;2.20;96.70;;;;;;4954367;28;20515;-70
2021/12/13 06:32:38;;;;;;;7.75;5.03;;;2.20;96.70;;;;;;4974309;28;20137;-70
2021/12/13 06:35:34;;;;;;;6.75;4.35;;;2.20;96.70;;;;;;4939244;28;20467;-71
2021/12/13 06:38:38;;;;;;;5.50;4.40;;;2.20;96.70;;;;;;4972273;28;20038;-70
2021/12/13 06:41:13;;;;;;;7.75;4.32;;;2.20;96.70;;;;;;4973372;28;20441;-70
2021/12/13 06:43:46;;;;;;;6.28;3.90;;;2.10;96.70;;;;;;4972141;28;20100;-70
2021/12/13 06:46:37;;;;;;;6.60;4.28;;;2.10;96.70;;;;;;4973303;28;20046;-71
2021/12/13 06:49:15;;;;;;;6.22;4.20;;;2.20;96.70;;;;;;4956996;28;20073;-70
2021/12/13 06:51:47;;;;;;;6.82;5.00;;;2.20;96.70;;;;;;4972112;28;20077;-70
2021/12/13 06:54:18;;;;;;;8.27;4.90;;;2.20;96.70;;;;;;4970762;28;20073;-70
2021/12/13 06:56:55;;;;;;;6.53;4.05;;;2.10;96.70;;;;;;4955323;28;20170;-70
2021/12/13 06:59:25;;;;;;;9.45;5.03;;;2.20;96.70;;;;;;4969917;28;20108;-70
2021/12/13 07:02:15;;;;;;;8.45;5.07;;;2.20;96.70;;;;;;4962909;28;20049;-70
2021/12/13 07:04:58;;;;;;;7.82;4.80;;;2.30;96.70;;;;;;4954878;28;20061;-71
2021/12/13 07:07:30;;;;;;;9.13;4.90;;;2.40;96.70;;;;;;4950811;28;20054;-70
2021/12/13 07:10:01;;;;;;;7.78;4.97;;;2.40;96.70;;;;;;4949046;28;20161;-71
2021/12/13 07:12:31;;;;;;;12.18;5.35;;;2.40;96.70;;;;;;4939907;28;20363;-70
2021/12/13 07:15:01;;;;;;;9.65;5.10;;;2.40;96.70;;;;;;4976035;28;20126;-70
2021/12/13 07:17:33;;;;;;;8.02;5.13;;;2.40;96.70;;;;;;4953760;28;20039;-70
2021/12/13 07:20:15;;;;;;;9.77;5.38;;;2.40;96.70;;;;;;4967208;28;20397;-70
2021/12/13 07:22:43;;;;;;;7.43;4.95;;;2.40;96.70;;;;;;4971469;28;20050;-70
2021/12/13 07:25:14;;;;;;;8.68;4.63;;;2.40;96.70;;;;;;4979636;28;20045;-70
2021/12/13 07:27:44;;;;;;;7.90;4.80;;;2.40;96.70;;;;;;4979606;28;20077;-70
2021/12/13 07:30:15;;;;;;;7.82;3.85;;;2.50;96.70;;;;;;4958062;28;20124;-70
2021/12/13 07:32:49;;;;;;;9.60;4.70;;;2.50;96.70;;;;;;4975847;28;20433;-70
2021/12/13 07:35:22;;;;;;;6.43;4.15;;;2.60;96.70;;;;;;4971602;28;21073;-70
2021/12/13 07:37:54;;;;;;;8.18;4.32;;;2.60;96.70;;;;;;4956255;28;20054;-70
2021/12/13 07:40:30;;;;;;;6.85;4.40;;;2.70;96.70;;;;;;4958490;28;20509;-70
2021/12/13 07:43:05;;;;;;;5.90;3.90;;;2.70;96.70;;;;;;4976240;28;20549;-70
2021/12/13 07:45:38;;;;;;;9.75;4.80;;;2.80;96.70;;;;;;4955103;28;20516;-70
2021/12/13 07:48:10;;;;;;;7.22;4.47;;;2.90;96.70;;;;;;4973971;28;20046;-70
2021/12/13 07:50:39;;;;;;;6.30;4.38;;;2.80;96.70;;;;;;4939715;28;20599;-70
2021/12/13 07:53:16;;;;;;;6.50;4.43;;;2.90;96.70;;;;;;4957230;28;20046;-70
2021/12/13 07:55:49;;;;;;;9.85;4.50;;;2.90;96.70;;;;;;4974220;28;20153;-70
2021/12/13 07:58:34;;;;;;;9.50;4.32;;;3.00;96.70;;;;;;4975154;28;20042;-71
2021/12/13 08:01:09;;;;;;;9.82;5.40;;;3.10;96.70;;;;;;4971155;28;20117;-70
2021/12/13 08:03:50;;;;;;;8.15;4.80;;;3.00;96.70;;;;;;4972623;28;20552;-70
2021/12/13 08:06:18;;;;;;;7.80;4.45;;;3.10;96.70;;;;;;4957241;28;20095;-70
2021/12/13 08:08:55;;;;;;;10.57;5.30;;;3.20;96.70;;;;;;4957208;28;20039;-70
2021/12/13 08:11:34;;;;;;;;;;;3.30;96.70;;;;;;4959662;28;20758;-70
2021/12/13 08:14:03;;;;;;;8.73;4.90;;;3.30;96.70;;;;;;4959756;28;19932;-70
2021/12/13 08:16:36;;;;;;;14.77;5.35;;;3.30;96.70;;;;;;4956389;28;20664;-70
2021/12/13 08:19:17;;;;;;;8.73;4.82;;;3.40;96.70;;;;;;4958192;28;20086;-70
2021/12/13 08:21:50;;;;;;;7.88;4.53;;;3.40;96.70;;;;;;4959907;28;20082;-70
2021/12/13 08:24:28;;;;;;;7.80;5.13;;;3.50;96.70;;;;;;4972271;28;20065;-70
2021/12/13 08:27:07;;;;;;;7.65;4.82;;;3.50;96.70;;;;;;4970569;28;20493;-70
2021/12/13 08:29:38;;;;;;;9.23;4.40;;;3.40;96.70;;;;;;4973633;28;20046;-71
2021/12/13 08:32:10;;;;;;;7.53;4.53;;;3.50;96.70;;;;;;4959434;28;20437;-72
2021/12/13 08:34:45;;;;;;;10.32;4.75;;;3.60;96.70;;;;;;4957081;28;20089;-71
2021/12/13 08:37:21;;;;;;;6.65;4.13;;;3.70;96.70;;;;;;4976076;28;20097;-70
2021/12/13 08:39:53;;;;;;;9.15;4.68;;;3.80;96.70;;;;;;4975970;28;20047;-71
2021/12/13 08:42:23;;;;;;;9.07;4.80;;;3.80;96.70;;;;;;4970172;28;20393;-70
2021/12/13 08:44:59;;;;;;;6.28;3.95;;;3.90;96.70;;;;;;4971720;28;20046;-71
2021/12/13 08:47:38;;;;;;;8.65;4.30;;;3.90;96.70;;;;;;4975789;28;20034;-71
2021/12/13 08:50:18;;;;;;;7.22;4.50;;;4.00;96.70;;;;;;4943382;28;20042;-71
2021/12/13 08:52:48;;;;;;;6.57;4.63;;;4.10;96.70;;;;;;4976523;28;20463;-71
2021/12/13 08:55:30;;;;;;;7.88;5.65;;;4.10;96.70;;;;;;4961687;28;20046;-71
2021/12/13 08:58:15;;;;;;;10.88;7.85;;;4.10;96.70;;;;;;4973059;28;20046;-70
2021/12/13 09:01:02;;;;;;;10.70;5.55;;;4.20;96.70;;;;;;4962549;28;20054;-70
2021/12/13 09:03:39;;;;;;;6.03;4.90;;;4.20;96.70;;;;;;4975349;28;20053;-70
2021/12/13 09:06:25;;;;;;;8.00;5.43;;;4.30;96.70;;;;;;4959089;28;20074;-70
2021/12/13 09:08:57;;;;;;;11.40;5.85;;;4.50;96.70;;;;;;4970551;28;20049;-70
2021/12/13 09:11:30;;;;;;;8.68;5.35;;;4.80;96.70;;;;;;4971127;28;20318;-70
2021/12/13 09:14:05;;;;;;;10.55;5.63;;;4.80;96.70;;;;;;4974425;28;20444;-70
2021/12/13 09:16:53;;;;;;;7.00;4.82;;;4.90;96.70;;;;;;4974003;28;20042;-70
2021/12/13 09:19:25;;;;;;;11.30;5.53;;;5.00;96.70;;;;;;4958851;28;20117;-70
2021/12/13 09:21:58;;;;;;;8.02;5.32;;;5.00;96.70;;;;;;4956770;28;20086;-69
2021/12/13 09:24:34;;;;;;;9.52;5.20;;;5.20;96.70;;;;;;4975392;28;20104;-72
2021/12/13 09:27:14;;;;;;;8.15;5.75;;;5.40;96.70;;;;;;4972889;28;20077;-70
2021/12/13 09:29:52;;;;;;;6.85;5.10;;;5.40;96.70;;;;;;4976646;28;20042;-70
2021/12/13 09:32:31;;;;;;;9.73;5.72;;;5.50;96.70;;;;;;4955898;28;20108;-70
2021/12/13 09:35:17;;;;;;;10.18;5.72;;;5.70;96.70;;;;;;4978937;28;20453;-71
2021/12/13 09:37:47;;;;;;;6.18;4.80;;;5.80;96.70;;;;;;4971026;28;20101;-70
2021/12/13 09:40:17;;;;;;;6.90;5.20;;;5.80;96.70;;;;;;4953190;28;20563;-70
2021/12/13 09:42:47;;;;;;;8.15;5.20;;;6.00;96.70;;;;;;4937932;28;20070;-70
2021/12/13 09:45:26;;;;;;;7.68;5.28;;;6.10;96.70;;;;;;4938312;28;20089;-71
2021/12/13 09:47:54;;;;;;;5.88;4.50;;;6.30;96.70;;;;;;4944481;28;20053;-71
2021/12/13 09:50:26;;;;;;;8.02;5.22;;;6.30;96.70;;;;;;4969935;28;20034;-71
2021/12/13 09:52:59;;;;;;;6.20;4.70;;;6.40;96.70;;;;;;4969838;28;20057;-70
2021/12/13 09:55:30;;;;;;;7.25;4.38;;;6.60;96.70;;;;;;4973450;28;20046;-70
2021/12/13 09:58:05;;;;;;;5.43;4.22;;;6.60;96.70;;;;;;4968965;28;20105;-73
2021/12/13 10:00:41;;;;;;;7.60;4.55;;;6.80;96.70;;;;;;4967796;28;20073;-72
2021/12/13 10:03:14;;;;;;;6.03;4.18;;;7.00;96.70;;;;;;4953068;28;20046;-70
2021/12/13 10:05:45;;;;;;;6.60;4.45;;;7.10;96.70;;;;;;4952822;28;20108;-73
2021/12/13 10:08:18;;;;;;;6.85;4.07;;;7.20;96.70;;;;;;4974048;28;20138;-73
2021/12/13 10:10:49;;;;;;;6.25;4.63;;;7.20;96.70;;;;;;4967139;28;20460;-73
2021/12/13 10:13:22;;;;;;;5.22;3.92;;;7.30;96.70;;;;;;4955721;28;20050;-73
2021/12/13 10:15:53;;;;;;;5.57;4.10;;;7.40;96.70;;;;;;4966658;28;20066;-73
2021/12/13 10:18:31;;;;;;;5.97;4.20;;;7.50;96.70;;;;;;4959870;28;20125;-74
2021/12/13 10:21:01;;;;;;;6.18;4.20;;;7.60;96.70;;;;;;4958271;28;20050;-73
2021/12/13 10:23:34;;;;;;;5.68;4.28;;;7.50;96.70;;;;;;4973925;28;20065;-70
2021/12/13 10:26:25;;;;;;;5.32;3.80;;;7.60;96.70;;;;;;4972212;28;20042;-70
2021/12/13 10:28:55;;;;;;;6.25;3.97;;;7.60;96.70;;;;;;4952178;28;21031;-70
2021/12/13 10:31:28;;;;;;;5.80;4.25;;;7.60;96.70;;;;;;4973272;28;20050;-70
2021/12/13 10:33:58;;;;;;;5.97;4.18;;;7.80;96.70;;;;;;4952772;28;20142;-71
2021/12/13 10:36:28;;;;;;;7.70;4.60;;;7.80;96.70;;;;;;4975298;28;20049;-70
2021/12/13 10:39:05;;;;;;;5.85;4.40;;;8.00;96.70;;;;;;4951256;28;20417;-70
2021/12/13 10:41:56;;;;;;;9.65;6.05;;;8.20;96.70;;;;;;4973663;28;20050;-70
2021/12/13 10:44:28;;;;;;;7.60;5.60;;;8.40;96.70;;;;;;4973386;28;20042;-70
2021/12/13 10:47:00;;;;;;;7.03;5.75;;;8.50;96.70;;;;;;4952013;28;20050;-70
2021/12/13 10:49:30;;;;;;;7.05;5.43;;;8.60;96.70;;;;;;4953992;28;20096;-70
2021/12/13 10:52:04;;;;;;;8.02;6.50;;;8.60;96.70;;;;;;4969883;28;20744;-70
2021/12/13 10:54:39;;;;;;;8.10;6.10;;;8.70;96.70;;;;;;4960451;28;20373;-70
2021/12/13 10:57:12;;;;;;;9.70;7.18;;;8.70;96.70;;;;;;4970135;28;20051;-70
2021/12/13 10:59:43;;;;;;;9.32;7.18;;;8.60;96.70;;;;;;4955363;28;20112;-70
2021/12/13 11:02:16;;;;;;;9.13;6.22;;;8.70;96.70;;;;;;4970998;28;20050;-70
2021/12/13 11:04:48;;;;;;;8.85;5.93;;;8.70;96.70;;;;;;4970065;28;20070;-69
2021/12/13 11:07:17;;;;;;;9.98;6.13;;;8.80;96.70;;;;;;4954212;28;20043;-69
2021/12/13 11:09:48;;;;;;;8.45;7.15;;;8.80;96.70;;;;;;4968472;28;20528;-71
2021/12/13 11:12:21;;;;;;;8.70;7.72;;;9.00;96.70;;;;;;4971322;28;20046;-72
2021/12/13 11:14:53;;;;;;;7.25;5.93;;;9.00;96.70;;;;;;4970249;28;20404;-70
2021/12/13 11:17:25;;;;;;;10.52;6.57;;;9.00;96.70;;;;;;4954351;28;20574;-70
2021/12/13 11:19:57;;;;;;;8.23;6.40;;;9.10;96.70;;;;;;4970254;28;20051;-70
2021/12/13 11:22:29;;;;;;;13.65;6.50;;;9.10;96.70;;;;;;4952812;28;20126;-70
2021/12/13 11:25:05;;;;;;;8.48;6.38;;;9.10;96.70;;;;;;4967614;28;20043;-70
2021/12/13 11:27:34;;;;;;;12.07;7.07;;;9.20;96.70;;;;;;4967613;28;20046;-70
2021/12/13 11:30:06;;;;;;;8.73;6.75;;;9.40;96.70;;;;;;4976254;28;20512;-70
2021/12/13 11:33:09;;;;;;;7.97;6.35;;;9.50;96.70;;;;;;4969769;28;20046;-70
2021/12/13 11:36:09;;;;;;;7.10;5.20;;;9.60;96.70;;;;;;4966525;28;20048;-70
2021/12/13 11:39:20;;;;;;;7.38;6.07;;;9.70;96.70;;;;;;4949904;28;20042;-70
2021/12/13 11:42:12;;;;;;;7.68;5.32;;;9.80;96.70;;;;;;4971029;28;20050;-70
2021/12/13 11:45:34;;;;;;;6.55;5.07;;;10.10;96.70;;;;;;4971850;28;20103;-70
2021/12/13 11:48:30;;;;;;;7.75;5.85;;;10.10;96.70;;;;;;4955963;28;20047;-70
2021/12/13 11:51:21;;;;;;;9.02;5.85;;;10.30;96.70;;;;;;4953796;28;20078;-70
2021/12/13 11:54:11;;;;;;;8.32;5.22;;;10.40;96.70;;;;;;4968248;28;20138;-70
2021/12/13 11:57:25;;;;;;;9.05;4.90;;;10.50;96.70;;;;;;4953500;28;20045;-70
2021/12/13 12:00:08;;;;;;;9.60;5.30;;;10.60;96.70;;;;;;4922893;28;20062;-70
2021/12/13 12:02:59;;;;;;;5.45;4.53;;;10.70;96.70;;;;;;4950675;28;20515;-70
2021/12/13 12:06:15;;;;;;;6.93;4.65;;;10.90;96.70;;;;;;4969699;28;20479;-70
2021/12/13 12:08:58;;;;;;;6.60;4.90;;;11.10;96.70;;;;;;4970724;28;20085;-70
2021/12/13 12:12:07;;;;;;;10.27;4.97;;;11.20;96.70;;;;;;4972179;28;20308;-70
2021/12/13 12:14:35;;;;;;;7.10;4.70;;;11.40;96.70;;;;;;4934525;28;20496;-70
2021/12/13 12:17:06;;;;;;;6.88;4.55;;;11.50;96.70;;;;;;4958958;28;20519;-70
2021/12/13 12:19:37;;;;;;;5.28;4.40;;;11.60;96.70;;;;;;4972002;28;20043;-70
2021/12/13 12:22:09;;;;;;;6.88;4.25;;;11.70;96.70;;;;;;4973188;28;20047;-70
2021/12/13 12:24:40;;;;;;;7.18;4.10;;;11.80;96.70;;;;;;4954857;28;20158;-70
2021/12/13 12:27:12;;;;;;;7.47;4.85;;;11.90;96.70;;;;;;4960148;28;20045;-70
2021/12/13 12:29:44;;;;;;;6.55;4.18;;;11.90;96.70;;;;;;4959099;28;20054;-70
2021/12/13 12:32:18;;;;;;;5.90;4.18;;;12.00;96.70;;;;;;4976723;28;20413;-70
2021/12/13 12:34:53;;;;;;;7.32;4.60;;;12.10;96.70;;;;;;4955340;28;20067;-70
2021/12/13 12:37:51;;;;;;;6.30;4.30;;;12.10;96.70;;;;;;4973020;28;20619;-70
2021/12/13 12:40:25;;;;;;;4.38;3.58;;;12.10;96.70;;;;;;4973014;28;20049;-70
2021/12/13 12:42:55;;;;;;;6.32;4.18;;;12.10;96.70;;;;;;4943124;28;20055;-70
2021/12/13 12:45:28;;;;;;;6.88;4.72;;;12.30;96.70;;;;;;4974615;28;20043;-70
2021/12/13 12:48:11;;;;;;;6.05;4.00;;;12.40;96.70;;;;;;4975052;28;20047;-70
2021/12/13 12:50:59;;;;;;;9.85;5.15;;;12.40;96.70;;;;;;4971521;28;20038;-70
2021/12/13 12:53:47;;;;;;;5.70;4.80;;;12.50;96.70;;;;;;4973459;28;20046;-70
2021/12/13 12:56:21;;;;;;;7.95;4.43;;;12.60;96.70;;;;;;4972573;28;20075;-70
2021/12/13 12:58:54;;;;;;;4.88;3.80;;;12.60;96.70;;;;;;4952284;28;20109;-70
2021/12/13 13:01:26;;;;;;;5.82;4.00;;;12.60;96.70;;;;;;4952045;28;20505;-70
2021/12/13 13:04:14;;;;;;;5.47;3.70;;;12.60;96.70;;;;;;4951427;28;20122;-71
2021/12/13 13:07:04;;;;;;;7.55;3.75;;;12.70;96.70;;;;;;4953618;28;20560;-70
2021/12/13 13:09:51;;;;;;;9.18;3.95;;;12.80;96.70;;;;;;4952106;28;20122;-70
2021/12/13 13:12:25;;;;;;;;;;;12.70;96.70;;;;;;4950582;28;20054;-70
2021/12/13 13:14:55;;;;;;;4.70;3.25;;;12.70;96.70;;;;;;4957151;28;19973;-70
2021/12/13 13:17:25;;;;;;;4.60;3.05;;;12.70;96.70;;;;;;4959366;28;20468;-71
2021/12/13 13:19:57;;;;;;;5.20;3.90;;;12.70;96.70;;;;;;4956206;28;20055;-70
2021/12/13 13:22:29;;;;;;;5.75;3.78;;;12.70;96.70;;;;;;4955369;28;20043;-70
2021/12/13 13:25:21;;;;;;;5.85;3.35;;;12.50;96.70;;;;;;4943559;28;20046;-70
2021/12/13 13:27:51;;;;;;;6.50;3.13;;;12.40;96.70;;;;;;4954408;28;20044;-70
2021/12/13 13:30:27;;;;;;;4.97;3.28;;;12.20;96.70;;;;;;4952095;28;20284;-70
2021/12/13 13:32:55;;;;;;;5.18;3.00;;;12.10;96.70;;;;;;4953562;28;20129;-70
2021/12/13 13:35:24;;;;;;;4.50;3.00;;;11.90;96.70;;;;;;4952993;28;20042;-70
2021/12/13 13:38:02;;;;;;;4.45;3.08;;;11.90;96.70;;;;;;4949973;28;20039;-70
2021/12/13 13:40:34;;;;;;;4.43;3.42;;;11.80;96.70;;;;;;4951916;28;20125;-70
2021/12/13 13:43:05;;;;;;;3.28;2.60;;;11.80;96.70;;;;;;4957971;28;20051;-70
2021/12/13 13:45:36;;;;;;;4.60;2.65;;;11.70;96.70;;;;;;4950970;28;20051;-70
2021/12/13 13:48:08;;;;;;;4.85;3.03;;;11.60;96.70;;;;;;4949855;28;20502;-70